首页
METAR-TAF:

METAR-TAF

机场 :

多尼戈爾, 爱尔兰

纬度: 55-02-39N, 经度: 8-20-28W, 海拔: 9米

当前天气观测

该预报发布于3小时和27分钟前的18:00 UTC
风速18节,风向
温度 10°C
湿度 93%
气压 1007 hPa
能見度: 6000
多云层高于900英尺
阴天层高于2300英尺

METAR: EIDL 061800Z 36018KT 6000 BKN009 OVC023 10/09 Q1007

时间: 22:27 (21:27 UTC)

预报

该预报发布于4小时和27分钟前的17:00 UTC
预报有效从06日的 18点(UTC)到 07日的 03点(UTC)
风速15节,风向
能见度10公里或以上
散云层高于1000英尺
阴天层高于1500英尺
短暂存在
从 06日的 18点(UTC)到 07日的 03点(UTC)
风速20节,风向北转西北,有时为30节阵风
能見度: 3000
多云层高于900英尺
小雨, 轻雾

TAF: EIDL 061700Z 0618/0703 35015KT 9999 SCT010 OVC015 TEMPO 0618/0703 34020G30KT 3000 -RA BR BKN009

超过4000个机场的气象观测和天气预报(METAR&TAF报告)。

可查询的气象台以黄色和红色小点在地图上表示。

将鼠标移到小点上方,可查看气象台名称。

然后点击查看天气观测和预报。

如需切换地图:点击带黑十字的绿色按钮放大地图;点击带横线的绿色按钮缩小地图;或者点击绿色箭头查看邻近地区的地图。


METAR-TAF: